sensor_id;sensor_type;location;lat;lon;timestamp;pressure;altitude;pressure_sealevel;temperature;humidity
66742;BME280;53654;54.152;19.432;2023-01-28T00:00:54;102628.00;;;1.01;57.66
66742;BME280;53654;54.152;19.432;2023-01-28T00:03:24;102630.65;;;1.02;57.77
66742;BME280;53654;54.152;19.432;2023-01-28T00:06:05;102628.16;;;1.04;57.88
66742;BME280;53654;54.152;19.432;2023-01-28T00:08:34;102625.86;;;1.03;58.12
66742;BME280;53654;54.152;19.432;2023-01-28T00:11:05;102622.95;;;1.03;58.16
66742;BME280;53654;54.152;19.432;2023-01-28T00:13:33;102623.00;;;1.00;58.11
66742;BME280;53654;54.152;19.432;2023-01-28T00:16:03;102622.45;;;1.00;58.13
66742;BME280;53654;54.152;19.432;2023-01-28T00:18:32;102622.74;;;0.96;57.92
66742;BME280;53654;54.152;19.432;2023-01-28T00:21:10;102629.45;;;0.96;57.85
66742;BME280;53654;54.152;19.432;2023-01-28T00:23:40;102631.42;;;0.92;57.94
66742;BME280;53654;54.152;19.432;2023-01-28T00:26:11;102629.00;;;0.91;58.03
66742;BME280;53654;54.152;19.432;2023-01-28T00:28:41;102624.79;;;0.96;58.39
66742;BME280;53654;54.152;19.432;2023-01-28T00:31:21;102621.42;;;1.00;58.19
66742;BME280;53654;54.152;19.432;2023-01-28T00:33:50;102625.51;;;1.02;58.23
66742;BME280;53654;54.152;19.432;2023-01-28T00:36:20;102624.88;;;1.06;58.16
66742;BME280;53654;54.152;19.432;2023-01-28T00:38:50;102625.61;;;1.07;58.09
66742;BME280;53654;54.152;19.432;2023-01-28T00:41:20;102627.32;;;1.07;58.26
66742;BME280;53654;54.152;19.432;2023-01-28T00:43:51;102626.85;;;1.07;58.34
66742;BME280;53654;54.152;19.432;2023-01-28T00:46:20;102630.27;;;1.10;58.36
66742;BME280;53654;54.152;19.432;2023-01-28T00:48:49;102628.87;;;1.09;58.51
66742;BME280;53654;54.152;19.432;2023-01-28T00:51:18;102628.33;;;1.12;58.74
66742;BME280;53654;54.152;19.432;2023-01-28T00:53:48;102631.46;;;1.10;58.15
66742;BME280;53654;54.152;19.432;2023-01-28T00:56:17;102627.64;;;1.04;58.12
66742;BME280;53654;54.152;19.432;2023-01-28T00:58:46;102625.75;;;0.98;58.24
66742;BME280;53654;54.152;19.432;2023-01-28T01:01:16;102616.72;;;0.95;58.50
66742;BME280;53654;54.152;19.432;2023-01-28T01:03:45;102615.09;;;0.91;58.51
66742;BME280;53654;54.152;19.432;2023-01-28T01:06:14;102607.79;;;0.87;58.50
66742;BME280;53654;54.152;19.432;2023-01-28T01:08:42;102613.20;;;0.83;58.67
66742;BME280;53654;54.152;19.432;2023-01-28T01:11:17;102611.23;;;0.76;58.63
66742;BME280;53654;54.152;19.432;2023-01-28T01:13:51;102613.25;;;0.73;58.89
66742;BME280;53654;54.152;19.432;2023-01-28T01:16:20;102613.44;;;0.70;59.09
66742;BME280;53654;54.152;19.432;2023-01-28T01:18:50;102612.20;;;0.67;59.40
66742;BME280;53654;54.152;19.432;2023-01-28T01:21:22;102614.94;;;0.67;59.90
66742;BME280;53654;54.152;19.432;2023-01-28T01:23:50;102608.90;;;0.69;59.95
66742;BME280;53654;54.152;19.432;2023-01-28T01:26:19;102605.88;;;0.70;60.08
66742;BME280;53654;54.152;19.432;2023-01-28T01:28:49;102606.05;;;0.73;60.31
66742;BME280;53654;54.152;19.432;2023-01-28T01:31:19;102596.98;;;0.76;60.32
66742;BME280;53654;54.152;19.432;2023-01-28T01:33:49;102590.60;;;0.79;60.03
66742;BME280;53654;54.152;19.432;2023-01-28T01:36:18;102589.94;;;0.79;59.58
66742;BME280;53654;54.152;19.432;2023-01-28T01:38:52;102594.65;;;0.83;59.35
66742;BME280;53654;54.152;19.432;2023-01-28T01:41:28;102593.13;;;0.83;59.42
66742;BME280;53654;54.152;19.432;2023-01-28T01:44:02;102597.10;;;0.81;59.65
66742;BME280;53654;54.152;19.432;2023-01-28T01:52:17;102601.05;;;0.73;59.65
66742;BME280;53654;54.152;19.432;2023-01-28T01:54:52;102604.34;;;0.70;59.66
66742;BME280;53654;54.152;19.432;2023-01-28T01:57:26;102602.02;;;0.72;59.39
66742;BME280;53654;54.152;19.432;2023-01-28T01:59:57;102604.56;;;0.74;59.72
66742;BME280;53654;54.152;19.432;2023-01-28T02:02:47;102609.28;;;0.78;59.55
66742;BME280;53654;54.152;19.432;2023-01-28T02:05:18;102606.41;;;0.79;59.40
66742;BME280;53654;54.152;19.432;2023-01-28T02:07:49;102610.60;;;0.80;59.63
66742;BME280;53654;54.152;19.432;2023-01-28T02:10:18;102611.08;;;0.82;59.69
66742;BME280;53654;54.152;19.432;2023-01-28T02:12:52;102606.02;;;0.86;60.12
66742;BME280;53654;54.152;19.432;2023-01-28T02:15:25;102604.91;;;0.88;60.21
66742;BME280;53654;54.152;19.432;2023-01-28T02:17:55;102601.02;;;0.89;59.98
66742;BME280;53654;54.152;19.432;2023-01-28T02:23:54;102594.86;;;0.87;60.00
66742;BME280;53654;54.152;19.432;2023-01-28T02:32:54;102591.38;;;0.91;59.54
66742;BME280;53654;54.152;19.432;2023-01-28T02:35:33;102597.45;;;0.95;59.53
66742;BME280;53654;54.152;19.432;2023-01-28T02:38:26;102597.29;;;0.99;59.33
66742;BME280;53654;54.152;19.432;2023-01-28T02:41:01;102591.49;;;0.96;59.29
66742;BME280;53654;54.152;19.432;2023-01-28T02:43:37;102588.67;;;0.98;59.52
66742;BME280;53654;54.152;19.432;2023-01-28T02:49:14;102588.84;;;0.95;60.47
66742;BME280;53654;54.152;19.432;2023-01-28T02:51:52;102589.83;;;0.97;60.54
66742;BME280;53654;54.152;19.432;2023-01-28T03:00:18;102588.30;;;0.86;59.68
66742;BME280;53654;54.152;19.432;2023-01-28T03:03:09;102581.08;;;0.83;59.66
66742;BME280;53654;54.152;19.432;2023-01-28T03:05:43;102580.97;;;0.78;59.88
66742;BME280;53654;54.152;19.432;2023-01-28T03:08:33;102581.30;;;0.78;60.14
66742;BME280;53654;54.152;19.432;2023-01-28T03:11:21;102580.05;;;0.80;60.04
66742;BME280;53654;54.152;19.432;2023-01-28T03:14:09;102579.61;;;0.84;60.20
66742;BME280;53654;54.152;19.432;2023-01-28T03:16:59;102585.02;;;0.86;60.36
66742;BME280;53654;54.152;19.432;2023-01-28T03:19:47;102593.54;;;0.87;60.59
66742;BME280;53654;54.152;19.432;2023-01-28T03:22:36;102595.29;;;0.91;60.59
66742;BME280;53654;54.152;19.432;2023-01-28T03:25:26;102588.21;;;0.93;60.44
66742;BME280;53654;54.152;19.432;2023-01-28T03:28:17;102576.83;;;0.95;60.33
66742;BME280;53654;54.152;19.432;2023-01-28T03:31:09;102574.98;;;0.96;60.28
66742;BME280;53654;54.152;19.432;2023-01-28T03:33:59;102572.33;;;0.94;60.14
66742;BME280;53654;54.152;19.432;2023-01-28T03:36:48;102568.66;;;0.94;60.25
66742;BME280;53654;54.152;19.432;2023-01-28T03:39:37;102569.21;;;0.94;60.07
66742;BME280;53654;54.152;19.432;2023-01-28T03:42:11;102568.29;;;1.00;59.58
66742;BME280;53654;54.152;19.432;2023-01-28T03:44:59;102570.04;;;1.00;59.29
66742;BME280;53654;54.152;19.432;2023-01-28T03:47:32;102564.45;;;1.02;59.13
66742;BME280;53654;54.152;19.432;2023-01-28T03:50:02;102562.09;;;0.99;59.02
66742;BME280;53654;54.152;19.432;2023-01-28T03:52:39;102559.03;;;1.00;59.03
66742;BME280;53654;54.152;19.432;2023-01-28T03:55:16;102560.54;;;1.02;59.24
66742;BME280;53654;54.152;19.432;2023-01-28T03:57:44;102561.10;;;1.03;59.13
66742;BME280;53654;54.152;19.432;2023-01-28T04:00:13;102563.14;;;1.03;59.10
66742;BME280;53654;54.152;19.432;2023-01-28T04:02:45;102560.51;;;1.02;59.39
66742;BME280;53654;54.152;19.432;2023-01-28T04:05:17;102555.39;;;0.99;59.22
66742;BME280;53654;54.152;19.432;2023-01-28T04:07:48;102559.52;;;0.99;59.25
66742;BME280;53654;54.152;19.432;2023-01-28T04:10:47;102562.21;;;0.92;59.48
66742;BME280;53654;54.152;19.432;2023-01-28T04:13:24;102564.45;;;0.89;59.59
66742;BME280;53654;54.152;19.432;2023-01-28T04:15:52;102565.35;;;0.93;59.89
66742;BME280;53654;54.152;19.432;2023-01-28T04:18:20;102560.91;;;0.96;60.21
66742;BME280;53654;54.152;19.432;2023-01-28T04:20:56;102565.25;;;1.01;59.91
66742;BME280;53654;54.152;19.432;2023-01-28T04:23:25;102568.90;;;1.01;59.78
66742;BME280;53654;54.152;19.432;2023-01-28T04:25:54;102571.27;;;1.03;59.49
66742;BME280;53654;54.152;19.432;2023-01-28T04:28:23;102574.36;;;1.06;59.18
66742;BME280;53654;54.152;19.432;2023-01-28T04:30:51;102580.20;;;1.06;58.91
66742;BME280;53654;54.152;19.432;2023-01-28T04:33:46;102580.64;;;1.02;59.18
66742;BME280;53654;54.152;19.432;2023-01-28T04:36:25;102579.56;;;1.01;59.14
66742;BME280;53654;54.152;19.432;2023-01-28T04:39:26;102579.05;;;1.01;59.43
66742;BME280;53654;54.152;19.432;2023-01-28T04:42:17;102579.52;;;1.00;59.14
66742;BME280;53654;54.152;19.432;2023-01-28T04:45:05;102576.89;;;1.00;59.19
66742;BME280;53654;54.152;19.432;2023-01-28T04:47:54;102579.16;;;1.00;59.42
66742;BME280;53654;54.152;19.432;2023-01-28T04:50:30;102585.69;;;1.03;59.32
66742;BME280;53654;54.152;19.432;2023-01-28T04:53:19;102585.11;;;1.05;59.16
66742;BME280;53654;54.152;19.432;2023-01-28T04:55:58;102587.52;;;1.02;59.17
66742;BME280;53654;54.152;19.432;2023-01-28T04:58:30;102581.81;;;1.04;59.06
66742;BME280;53654;54.152;19.432;2023-01-28T05:01:02;102584.50;;;1.09;59.13
66742;BME280;53654;54.152;19.432;2023-01-28T05:03:31;102583.55;;;1.10;59.31
66742;BME280;53654;54.152;19.432;2023-01-28T05:06:03;102579.05;;;1.10;59.17
66742;BME280;53654;54.152;19.432;2023-01-28T05:08:43;102577.53;;;1.10;59.19
66742;BME280;53654;54.152;19.432;2023-01-28T05:11:14;102577.66;;;1.12;59.18
66742;BME280;53654;54.152;19.432;2023-01-28T05:13:43;102577.44;;;1.12;58.92
66742;BME280;53654;54.152;19.432;2023-01-28T05:16:13;102579.83;;;1.08;59.02
66742;BME280;53654;54.152;19.432;2023-01-28T05:18:42;102580.45;;;1.08;59.20
66742;BME280;53654;54.152;19.432;2023-01-28T05:21:14;102574.06;;;1.07;59.14
66742;BME280;53654;54.152;19.432;2023-01-28T05:23:43;102578.34;;;1.06;59.01
66742;BME280;53654;54.152;19.432;2023-01-28T05:26:11;102582.01;;;1.05;59.21
66742;BME280;53654;54.152;19.432;2023-01-28T05:28:40;102592.46;;;1.04;59.11
66742;BME280;53654;54.152;19.432;2023-01-28T05:31:09;102591.02;;;1.05;59.09
66742;BME280;53654;54.152;19.432;2023-01-28T05:33:38;102596.09;;;1.08;59.08
66742;BME280;53654;54.152;19.432;2023-01-28T05:36:10;102600.38;;;1.10;59.09
66742;BME280;53654;54.152;19.432;2023-01-28T05:38:38;102603.53;;;1.14;59.35
66742;BME280;53654;54.152;19.432;2023-01-28T05:41:06;102604.66;;;1.12;59.19
66742;BME280;53654;54.152;19.432;2023-01-28T05:43:35;102611.42;;;1.08;59.08
66742;BME280;53654;54.152;19.432;2023-01-28T05:46:25;102611.42;;;1.03;59.40
66742;BME280;53654;54.152;19.432;2023-01-28T05:49:07;102610.19;;;1.02;59.40
66742;BME280;53654;54.152;19.432;2023-01-28T05:52:08;102607.65;;;1.00;59.52
66742;BME280;53654;54.152;19.432;2023-01-28T05:54:37;102609.95;;;1.04;59.52
66742;BME280;53654;54.152;19.432;2023-01-28T05:57:06;102607.36;;;1.09;59.97
66742;BME280;53654;54.152;19.432;2023-01-28T05:59:34;102604.66;;;1.13;59.57
66742;BME280;53654;54.152;19.432;2023-01-28T06:02:02;102601.98;;;1.17;59.67
66742;BME280;53654;54.152;19.432;2023-01-28T06:04:31;102603.15;;;1.19;59.42
66742;BME280;53654;54.152;19.432;2023-01-28T06:06:59;102608.11;;;1.19;58.99
66742;BME280;53654;54.152;19.432;2023-01-28T06:09:27;102610.55;;;1.22;58.80
66742;BME280;53654;54.152;19.432;2023-01-28T06:11:55;102608.22;;;1.23;59.12
66742;BME280;53654;54.152;19.432;2023-01-28T06:14:24;102612.20;;;1.26;59.12
66742;BME280;53654;54.152;19.432;2023-01-28T06:17:27;102608.22;;;1.26;58.63
66742;BME280;53654;54.152;19.432;2023-01-28T06:20:03;102605.16;;;1.30;58.55
66742;BME280;53654;54.152;19.432;2023-01-28T06:22:32;102604.63;;;1.33;58.25
66742;BME280;53654;54.152;19.432;2023-01-28T06:25:00;102605.42;;;1.37;58.06
66742;BME280;53654;54.152;19.432;2023-01-28T06:27:28;102606.50;;;1.44;58.69
66742;BME280;53654;54.152;19.432;2023-01-28T06:29:56;102608.84;;;1.49;59.31
66742;BME280;53654;54.152;19.432;2023-01-28T06:32:24;102611.64;;;1.49;59.67
66742;BME280;53654;54.152;19.432;2023-01-28T06:34:53;102611.09;;;1.51;59.94
66742;BME280;53654;54.152;19.432;2023-01-28T06:37:21;102611.30;;;1.52;60.58
66742;BME280;53654;54.152;19.432;2023-01-28T06:39:52;102611.19;;;1.50;60.74
66742;BME280;53654;54.152;19.432;2023-01-28T06:42:21;102612.20;;;1.50;60.75
66742;BME280;53654;54.152;19.432;2023-01-28T06:44:49;102615.00;;;1.48;61.03
66742;BME280;53654;54.152;19.432;2023-01-28T06:47:17;102615.50;;;1.42;61.50
66742;BME280;53654;54.152;19.432;2023-01-28T06:49:45;102613.51;;;1.37;61.80
66742;BME280;53654;54.152;19.432;2023-01-28T06:52:13;102613.50;;;1.37;62.15
66742;BME280;53654;54.152;19.432;2023-01-28T06:54:41;102616.38;;;1.39;62.21
66742;BME280;53654;54.152;19.432;2023-01-28T06:57:09;102622.14;;;1.41;62.00
66742;BME280;53654;54.152;19.432;2023-01-28T06:59:37;102616.36;;;1.45;62.12
66742;BME280;53654;54.152;19.432;2023-01-28T07:02:06;102612.59;;;1.48;62.08
66742;BME280;53654;54.152;19.432;2023-01-28T07:04:36;102612.03;;;1.50;61.30
66742;BME280;53654;54.152;19.432;2023-01-28T07:07:04;102610.97;;;1.52;61.54
66742;BME280;53654;54.152;19.432;2023-01-28T07:09:32;102611.48;;;1.55;61.98
66742;BME280;53654;54.152;19.432;2023-01-28T07:12:00;102605.83;;;1.55;61.80
66742;BME280;53654;54.152;19.432;2023-01-28T07:14:32;102612.27;;;1.57;61.51
66742;BME280;53654;54.152;19.432;2023-01-28T07:17:00;102610.63;;;1.58;61.48
66742;BME280;53654;54.152;19.432;2023-01-28T07:19:28;102607.44;;;1.60;61.27
66742;BME280;53654;54.152;19.432;2023-01-28T07:21:56;102607.52;;;1.58;61.56
66742;BME280;53654;54.152;19.432;2023-01-28T07:24:28;102608.33;;;1.54;61.76
66742;BME280;53654;54.152;19.432;2023-01-28T07:26:56;102612.42;;;1.51;61.91
66742;BME280;53654;54.152;19.432;2023-01-28T07:29:24;102619.25;;;1.47;61.98
66742;BME280;53654;54.152;19.432;2023-01-28T07:31:52;102620.52;;;1.48;61.99
66742;BME280;53654;54.152;19.432;2023-01-28T07:34:20;102625.04;;;1.49;62.50
66742;BME280;53654;54.152;19.432;2023-01-28T07:36:49;102627.53;;;1.47;62.18
66742;BME280;53654;54.152;19.432;2023-01-28T07:39:17;102628.38;;;1.47;62.25
66742;BME280;53654;54.152;19.432;2023-01-28T07:41:45;102630.94;;;1.50;62.32
66742;BME280;53654;54.152;19.432;2023-01-28T07:44:31;102636.08;;;1.49;62.22
66742;BME280;53654;54.152;19.432;2023-01-28T07:46:59;102635.20;;;1.49;62.26
66742;BME280;53654;54.152;19.432;2023-01-28T07:49:27;102635.33;;;1.48;62.33
66742;BME280;53654;54.152;19.432;2023-01-28T07:51:55;102634.88;;;1.44;62.10
66742;BME280;53654;54.152;19.432;2023-01-28T07:54:23;102636.09;;;1.44;62.39
66742;BME280;53654;54.152;19.432;2023-01-28T07:56:51;102637.44;;;1.46;62.55
66742;BME280;53654;54.152;19.432;2023-01-28T07:59:19;102634.42;;;1.48;62.69
66742;BME280;53654;54.152;19.432;2023-01-28T08:01:47;102635.98;;;1.48;62.93
66742;BME280;53654;54.152;19.432;2023-01-28T08:04:15;102636.27;;;1.50;62.77
66742;BME280;53654;54.152;19.432;2023-01-28T08:06:44;102637.36;;;1.51;62.80
66742;BME280;53654;54.152;19.432;2023-01-28T08:09:12;102637.05;;;1.51;62.67
66742;BME280;53654;54.152;19.432;2023-01-28T08:11:40;102637.66;;;1.53;62.70
66742;BME280;53654;54.152;19.432;2023-01-28T08:14:09;102637.34;;;1.56;62.56
66742;BME280;53654;54.152;19.432;2023-01-28T08:16:37;102633.77;;;1.60;62.28
66742;BME280;53654;54.152;19.432;2023-01-28T08:19:05;102639.91;;;1.62;62.01
66742;BME280;53654;54.152;19.432;2023-01-28T08:21:33;102636.10;;;1.62;62.24
66742;BME280;53654;54.152;19.432;2023-01-28T08:24:01;102637.73;;;1.64;63.03
66742;BME280;53654;54.152;19.432;2023-01-28T08:26:30;102633.45;;;1.67;63.05
66742;BME280;53654;54.152;19.432;2023-01-28T08:28:58;102631.17;;;1.69;62.65
66742;BME280;53654;54.152;19.432;2023-01-28T08:31:26;102628.80;;;1.73;61.99
66742;BME280;53654;54.152;19.432;2023-01-28T08:33:56;102622.48;;;1.74;61.64
66742;BME280;53654;54.152;19.432;2023-01-28T08:36:25;102622.30;;;1.76;60.82
66742;BME280;53654;54.152;19.432;2023-01-28T08:38:54;102624.72;;;1.79;59.63
66742;BME280;53654;54.152;19.432;2023-01-28T08:41:22;102626.51;;;1.84;59.42
66742;BME280;53654;54.152;19.432;2023-01-28T08:43:51;102623.85;;;1.88;59.50
66742;BME280;53654;54.152;19.432;2023-01-28T08:46:19;102622.11;;;1.88;60.33
66742;BME280;53654;54.152;19.432;2023-01-28T08:48:48;102622.98;;;1.85;60.60
66742;BME280;53654;54.152;19.432;2023-01-28T08:51:17;102619.12;;;1.84;60.99
66742;BME280;53654;54.152;19.432;2023-01-28T08:53:45;102612.56;;;1.87;60.85
66742;BME280;53654;54.152;19.432;2023-01-28T08:56:13;102612.98;;;1.91;59.92
66742;BME280;53654;54.152;19.432;2023-01-28T08:58:41;102620.28;;;1.92;57.80
66742;BME280;53654;54.152;19.432;2023-01-28T09:01:09;102624.10;;;1.96;57.30
66742;BME280;53654;54.152;19.432;2023-01-28T09:03:37;102622.55;;;1.99;58.48
66742;BME280;53654;54.152;19.432;2023-01-28T09:06:06;102625.27;;;2.01;58.09
66742;BME280;53654;54.152;19.432;2023-01-28T09:08:34;102628.94;;;1.99;55.83
66742;BME280;53654;54.152;19.432;2023-01-28T09:11:02;102631.83;;;1.98;55.35
66742;BME280;53654;54.152;19.432;2023-01-28T09:13:30;102635.33;;;2.00;54.85
66742;BME280;53654;54.152;19.432;2023-01-28T09:15:58;102629.68;;;2.00;54.78
66742;BME280;53654;54.152;19.432;2023-01-28T09:18:26;102629.91;;;2.01;54.10
66742;BME280;53654;54.152;19.432;2023-01-28T09:20:55;102628.48;;;2.03;54.04
66742;BME280;53654;54.152;19.432;2023-01-28T09:23:23;102628.31;;;2.06;53.66
66742;BME280;53654;54.152;19.432;2023-01-28T09:25:58;102629.54;;;2.10;54.01
66742;BME280;53654;54.152;19.432;2023-01-28T09:28:26;102628.11;;;2.12;54.77
66742;BME280;53654;54.152;19.432;2023-01-28T09:31:06;102628.10;;;2.15;55.55
66742;BME280;53654;54.152;19.432;2023-01-28T09:33:36;102635.46;;;2.17;56.30
66742;BME280;53654;54.152;19.432;2023-01-28T09:36:07;102635.23;;;2.19;56.53
66742;BME280;53654;54.152;19.432;2023-01-28T09:38:35;102631.26;;;2.19;55.72
66742;BME280;53654;54.152;19.432;2023-01-28T09:41:18;102631.50;;;2.20;55.59
66742;BME280;53654;54.152;19.432;2023-01-28T09:46:34;102629.06;;;2.16;55.64
66742;BME280;53654;54.152;19.432;2023-01-28T09:49:14;102626.94;;;2.15;55.38
66742;BME280;53654;54.152;19.432;2023-01-28T09:51:49;102628.34;;;2.16;55.73
66742;BME280;53654;54.152;19.432;2023-01-28T09:54:40;102627.91;;;2.18;56.78
66742;BME280;53654;54.152;19.432;2023-01-28T09:57:21;102633.99;;;2.15;56.89
66742;BME280;53654;54.152;19.432;2023-01-28T09:59:50;102635.80;;;2.17;56.91
66742;BME280;53654;54.152;19.432;2023-01-28T10:02:25;102634.33;;;2.18;56.60
66742;BME280;53654;54.152;19.432;2023-01-28T10:05:03;102632.52;;;2.20;56.31
66742;BME280;53654;54.152;19.432;2023-01-28T10:08:25;102628.27;;;2.21;55.83
66742;BME280;53654;54.152;19.432;2023-01-28T10:11:15;102630.49;;;2.20;55.59
66742;BME280;53654;54.152;19.432;2023-01-28T10:16:35;102623.94;;;2.17;54.71
66742;BME280;53654;54.152;19.432;2023-01-28T10:19:19;102624.96;;;2.17;55.11
66742;BME280;53654;54.152;19.432;2023-01-28T10:21:54;102621.70;;;2.17;54.74
66742;BME280;53654;54.152;19.432;2023-01-28T10:24:35;102612.71;;;2.20;54.70
66742;BME280;53654;54.152;19.432;2023-01-28T10:27:23;102609.30;;;2.20;54.37
66742;BME280;53654;54.152;19.432;2023-01-28T10:29:53;102609.84;;;2.21;55.28
66742;BME280;53654;54.152;19.432;2023-01-28T10:32:32;102609.38;;;2.21;55.85
66742;BME280;53654;54.152;19.432;2023-01-28T10:35:04;102613.16;;;2.22;55.76
66742;BME280;53654;54.152;19.432;2023-01-28T10:37:34;102609.69;;;2.24;55.75
66742;BME280;53654;54.152;19.432;2023-01-28T10:40:04;102601.89;;;2.27;55.60
66742;BME280;53654;54.152;19.432;2023-01-28T10:42:37;102597.88;;;2.29;55.15
66742;BME280;53654;54.152;19.432;2023-01-28T10:45:17;102601.56;;;2.30;54.46
66742;BME280;53654;54.152;19.432;2023-01-28T10:47:59;102598.13;;;2.27;53.84
66742;BME280;53654;54.152;19.432;2023-01-28T10:50:30;102593.02;;;2.25;53.93
66742;BME280;53654;54.152;19.432;2023-01-28T10:53:00;102585.49;;;2.26;53.67
66742;BME280;53654;54.152;19.432;2023-01-28T10:58:04;102586.50;;;2.29;53.52
66742;BME280;53654;54.152;19.432;2023-01-28T11:00:34;102586.45;;;2.31;53.25
66742;BME280;53654;54.152;19.432;2023-01-28T11:03:03;102584.02;;;2.31;53.86
66742;BME280;53654;54.152;19.432;2023-01-28T11:05:31;102586.46;;;2.31;54.13
66742;BME280;53654;54.152;19.432;2023-01-28T11:08:13;102581.77;;;2.34;54.06
66742;BME280;53654;54.152;19.432;2023-01-28T11:10:43;102580.75;;;2.34;53.86
66742;BME280;53654;54.152;19.432;2023-01-28T11:13:22;102587.86;;;2.38;53.84
66742;BME280;53654;54.152;19.432;2023-01-28T11:15:58;102587.72;;;2.39;53.90
66742;BME280;53654;54.152;19.432;2023-01-28T11:21:21;102587.80;;;2.34;53.05
66742;BME280;53654;54.152;19.432;2023-01-28T11:24:14;102582.66;;;2.34;52.93
66742;BME280;53654;54.152;19.432;2023-01-28T11:26:45;102580.69;;;2.33;53.14
66742;BME280;53654;54.152;19.432;2023-01-28T11:29:31;102573.44;;;2.32;53.11
66742;BME280;53654;54.152;19.432;2023-01-28T11:32:00;102565.48;;;2.32;53.19
66742;BME280;53654;54.152;19.432;2023-01-28T11:34:33;102567.61;;;2.33;53.02
66742;BME280;53654;54.152;19.432;2023-01-28T11:37:11;102567.32;;;2.34;53.76
66742;BME280;53654;54.152;19.432;2023-01-28T11:39:40;102571.30;;;2.34;53.82
66742;BME280;53654;54.152;19.432;2023-01-28T11:42:20;102573.31;;;2.37;53.27
66742;BME280;53654;54.152;19.432;2023-01-28T11:44:48;102572.03;;;2.35;53.39
66742;BME280;53654;54.152;19.432;2023-01-28T11:49:54;102568.45;;;2.36;54.65
66742;BME280;53654;54.152;19.432;2023-01-28T12:03:40;102557.19;;;2.35;53.81
66742;BME280;53654;54.152;19.432;2023-01-28T12:17:44;102550.69;;;2.32;54.27
66742;BME280;53654;54.152;19.432;2023-01-28T12:20:41;102555.35;;;2.29;53.83
66742;BME280;53654;54.152;19.432;2023-01-28T12:33:55;102531.63;;;2.23;53.66
66742;BME280;53654;54.152;19.432;2023-01-28T12:41:53;102516.88;;;2.28;54.13
66742;BME280;53654;54.152;19.432;2023-01-28T12:44:35;102515.94;;;2.30;54.00
66742;BME280;53654;54.152;19.432;2023-01-28T12:47:09;102518.63;;;2.29;54.18
66742;BME280;53654;54.152;19.432;2023-01-28T12:49:47;102522.84;;;2.30;54.75
66742;BME280;53654;54.152;19.432;2023-01-28T12:55:15;102517.59;;;2.32;55.47
66742;BME280;53654;54.152;19.432;2023-01-28T12:57:46;102512.53;;;2.27;55.47
66742;BME280;53654;54.152;19.432;2023-01-28T13:00:29;102511.79;;;2.30;55.33
66742;BME280;53654;54.152;19.432;2023-01-28T13:03:26;102506.55;;;2.28;55.53
66742;BME280;53654;54.152;19.432;2023-01-28T13:06:55;102501.30;;;2.23;55.80
66742;BME280;53654;54.152;19.432;2023-01-28T13:09:21;102497.40;;;2.14;55.37
66742;BME280;53654;54.152;19.432;2023-01-28T13:11:53;102490.20;;;2.12;55.69
66742;BME280;53654;54.152;19.432;2023-01-28T13:14:29;102485.02;;;2.15;55.46
66742;BME280;53654;54.152;19.432;2023-01-28T13:17:12;102477.34;;;2.16;55.75
66742;BME280;53654;54.152;19.432;2023-01-28T13:19:51;102478.85;;;2.15;55.58
66742;BME280;53654;54.152;19.432;2023-01-28T13:22:37;102476.98;;;2.16;56.28
66742;BME280;53654;54.152;19.432;2023-01-28T13:25:32;102469.12;;;2.17;56.15
66742;BME280;53654;54.152;19.432;2023-01-28T13:28:04;102471.52;;;2.17;56.15
66742;BME280;53654;54.152;19.432;2023-01-28T13:30:45;102467.67;;;2.19;56.28
66742;BME280;53654;54.152;19.432;2023-01-28T13:33:32;102465.04;;;2.21;57.17
66742;BME280;53654;54.152;19.432;2023-01-28T13:38:45;102461.70;;;2.23;56.97
66742;BME280;53654;54.152;19.432;2023-01-28T13:41:13;102464.98;;;2.23;57.09
66742;BME280;53654;54.152;19.432;2023-01-28T13:43:41;102464.34;;;2.24;56.68
66742;BME280;53654;54.152;19.432;2023-01-28T13:46:12;102464.04;;;2.29;56.72
66742;BME280;53654;54.152;19.432;2023-01-28T13:48:55;102478.36;;;2.29;57.02
66742;BME280;53654;54.152;19.432;2023-01-28T13:51:34;102477.70;;;2.30;57.45
66742;BME280;53654;54.152;19.432;2023-01-28T13:54:14;102475.70;;;2.27;57.66
66742;BME280;53654;54.152;19.432;2023-01-28T13:59:43;102466.58;;;2.21;57.37
66742;BME280;53654;54.152;19.432;2023-01-28T14:16:33;102464.80;;;1.79;58.33
66742;BME280;53654;54.152;19.432;2023-01-28T14:19:10;102463.58;;;1.69;58.77
66742;BME280;53654;54.152;19.432;2023-01-28T14:21:40;102463.70;;;1.61;58.88
66742;BME280;53654;54.152;19.432;2023-01-28T14:24:15;102461.03;;;1.60;59.47
66742;BME280;53654;54.152;19.432;2023-01-28T14:27:04;102462.63;;;1.60;59.66
66742;BME280;53654;54.152;19.432;2023-01-28T14:32:29;102462.52;;;1.58;60.00
66742;BME280;53654;54.152;19.432;2023-01-28T14:35:03;102460.77;;;1.65;59.86
66742;BME280;53654;54.152;19.432;2023-01-28T14:37:32;102460.46;;;1.68;59.90
66742;BME280;53654;54.152;19.432;2023-01-28T14:40:05;102459.05;;;1.71;59.90
66742;BME280;53654;54.152;19.432;2023-01-28T14:42:37;102451.56;;;1.69;59.49
66742;BME280;53654;54.152;19.432;2023-01-28T14:53:24;102441.52;;;1.65;60.12
66742;BME280;53654;54.152;19.432;2023-01-28T14:56:30;102438.09;;;1.62;60.10
66742;BME280;53654;54.152;19.432;2023-01-28T14:59:19;102426.35;;;1.61;60.17
66742;BME280;53654;54.152;19.432;2023-01-28T15:01:54;102431.30;;;1.60;59.97
66742;BME280;53654;54.152;19.432;2023-01-28T15:04:31;102433.23;;;1.57;60.10
66742;BME280;53654;54.152;19.432;2023-01-28T15:07:14;102433.98;;;1.59;60.27
66742;BME280;53654;54.152;19.432;2023-01-28T15:09:43;102431.06;;;1.56;60.32
66742;BME280;53654;54.152;19.432;2023-01-28T15:12:13;102428.88;;;1.57;60.13
66742;BME280;53654;54.152;19.432;2023-01-28T15:14:43;102426.01;;;1.61;60.25
66742;BME280;53654;54.152;19.432;2023-01-28T15:17:25;102420.15;;;1.64;60.18